Shark River Manor, New Jersey
Current Conditions -  °F | °C
As of 4:35 PM on Wednesday 17 Dec 2014 (Local Time) from KBLM Reporting Station
Overcast Overcast  
Wind Chill: 41°   Ceiling: 4100
Heat Index: 48°   Visibility: 10mi
Dew Point: 32°   Wind: 21mph
Humidity: 54%   Direction: 270°W
Pressure: 29.87"   Gusts: 26mph
Location:  40.1681°N, 74.0774°W
Report Text: KBLM 172135Z AUTO 27018G23KT 10SM OVC041 09/00 A2987 RMK AO1
Loading
Personal Weather Stations






























Interactive Weather Map New forecast layout! Learn more

10-Day Weather Forecast

Advertisements
Track Severe Weather on mobile